Time;durP1;ratioP1;P1;durP2;ratioP2;P2;SDS_P1;SDS_P2;PMS_P1;PMS_P2;Temp;Humidity;BMP_temperature;BMP_pressure;BME280_temperature;BME280_humidity;BME280_pressure;Samples;Min_cycle;Max_cycle;Signal;HPM_P1;HPM_P2
2021/10/28 00:14:31;;;;;;;24.85;13.07;;;11.50;99.90;;;;;;4972234;28;20399;-69
2021/10/28 00:16:58;;;;;;;23.27;13.52;;;11.40;99.90;;;;;;4970582;28;20031;-69
2021/10/28 00:19:26;;;;;;;29.63;15.13;;;11.40;99.90;;;;;;4971370;28;20455;-69
2021/10/28 00:21:52;;;;;;;27.50;15.23;;;11.40;99.90;;;;;;4970416;28;20472;-70
2021/10/28 00:24:17;;;;;;;25.33;14.73;;;11.40;99.90;;;;;;4971105;28;20015;-69
2021/10/28 00:26:46;;;;;;;23.70;13.93;;;11.40;99.90;;;;;;4971009;28;20377;-69
2021/10/28 00:29:18;;;;;;;31.50;15.80;;;11.40;99.90;;;;;;4971576;28;20384;-71
2021/10/28 00:31:46;;;;;;;26.27;15.13;;;11.40;99.90;;;;;;4970647;28;20035;-69
2021/10/28 00:34:13;;;;;;;30.65;15.65;;;11.40;99.90;;;;;;4970136;28;20118;-69
2021/10/28 00:36:40;;;;;;;28.27;16.20;;;11.30;99.90;;;;;;4971098;28;20080;-70
2021/10/28 00:39:08;;;;;;;31.10;15.10;;;11.30;99.90;;;;;;4971313;28;20023;-70
2021/10/28 00:41:34;;;;;;;33.30;15.85;;;11.30;99.90;;;;;;4971132;28;20023;-71
2021/10/28 00:44:00;;;;;;;32.30;16.73;;;11.30;99.90;;;;;;4969081;28;20030;-71
2021/10/28 00:46:28;;;;;;;30.02;15.80;;;11.20;99.90;;;;;;4971423;28;20022;-70
2021/10/28 00:48:55;;;;;;;33.22;18.00;;;11.20;99.90;;;;;;4971234;28;20563;-69
2021/10/28 00:51:23;;;;;;;34.75;17.60;;;11.20;99.90;;;;;;4969475;28;20030;-70
2021/10/28 00:53:51;;;;;;;42.25;17.75;;;11.10;99.90;;;;;;4971063;28;20031;-70
2021/10/28 00:56:18;;;;;;;32.33;17.90;;;11.10;99.90;;;;;;4970964;28;20038;-70
2021/10/28 00:58:44;;;;;;;45.80;18.95;;;11.10;99.90;;;;;;4971937;28;20103;-71
2021/10/28 01:01:10;;;;;;;36.03;19.50;;;11.00;99.90;;;;;;4970670;28;20027;-69
2021/10/28 01:03:38;;;;;;;42.70;18.30;;;11.00;99.90;;;;;;4971171;28;20034;-70
2021/10/28 01:06:05;;;;;;;43.78;21.55;;;10.90;99.90;;;;;;4969932;28;20117;-69
2021/10/28 01:08:31;;;;;;;35.72;17.60;;;11.00;99.90;;;;;;4966907;28;20018;-69
2021/10/28 01:10:57;;;;;;;45.13;19.85;;;11.00;99.90;;;;;;4971174;28;20030;-69
2021/10/28 01:13:24;;;;;;;44.63;20.95;;;10.90;99.90;;;;;;4971138;28;20031;-69
2021/10/28 01:15:53;;;;;;;47.78;21.15;;;11.00;99.90;;;;;;4971521;28;20030;-69
2021/10/28 01:18:19;;;;;;;45.65;20.70;;;11.00;99.90;;;;;;4971811;28;20027;-70
2021/10/28 01:20:50;;;;;;;41.90;21.05;;;10.90;99.90;;;;;;4974856;28;20110;-69
2021/10/28 01:23:16;;;;;;;;;;;11.00;99.90;;;;;;4974018;28;20063;-70
2021/10/28 01:25:53;;;;;;;38.80;20.08;;;10.90;99.90;;;;;;4974773;28;19906;-69
2021/10/28 01:28:20;;;;;;;45.40;20.55;;;10.90;99.90;;;;;;4973935;28;20026;-70
2021/10/28 01:30:48;;;;;;;38.15;19.05;;;10.90;99.90;;;;;;4974250;28;20027;-70
2021/10/28 01:33:14;;;;;;;42.53;19.02;;;10.90;99.90;;;;;;4974960;28;20015;-70
2021/10/28 01:35:39;;;;;;;38.10;18.98;;;10.90;99.90;;;;;;4973173;28;20395;-70
2021/10/28 01:38:05;;;;;;;36.45;20.15;;;10.80;99.90;;;;;;4974789;28;20011;-70
2021/10/28 01:40:30;;;;;;;33.97;18.55;;;10.80;99.90;;;;;;4973862;28;20023;-69
2021/10/28 01:42:56;;;;;;;42.20;18.55;;;10.80;99.90;;;;;;4974323;28;20030;-69
2021/10/28 01:45:22;;;;;;;38.97;18.70;;;10.80;99.90;;;;;;4973955;28;20415;-70
2021/10/28 01:47:48;;;;;;;34.72;18.05;;;10.80;99.90;;;;;;4973978;28;20029;-69
2021/10/28 01:50:14;;;;;;;40.60;20.08;;;10.80;99.90;;;;;;4974631;28;20019;-70
2021/10/28 01:52:40;;;;;;;41.08;19.10;;;10.70;99.90;;;;;;4974177;28;20057;-70
2021/10/28 01:55:11;;;;;;;32.45;18.95;;;10.70;99.90;;;;;;4974343;28;20826;-70
2021/10/28 01:57:37;;;;;;;;;;;10.70;99.90;;;;;;4971924;28;20397;-70
2021/10/28 02:00:13;;;;;;;32.78;17.88;;;10.70;99.90;;;;;;4974173;28;20009;-69
2021/10/28 02:02:41;;;;;;;34.38;18.67;;;10.70;99.90;;;;;;4973371;28;20038;-69
2021/10/28 02:05:14;;;;;;;40.65;19.23;;;10.60;99.90;;;;;;4973881;28;20026;-70
2021/10/28 02:07:40;;;;;;;35.10;17.80;;;10.60;99.90;;;;;;4974289;28;20030;-69
2021/10/28 02:10:07;;;;;;;37.42;18.65;;;10.60;99.90;;;;;;4973854;28;20025;-69
2021/10/28 02:12:34;;;;;;;37.72;17.52;;;10.60;99.90;;;;;;4973138;28;20054;-70
2021/10/28 02:15:00;;;;;;;41.03;19.25;;;10.60;99.90;;;;;;4973616;28;20090;-69
2021/10/28 02:17:26;;;;;;;34.63;18.38;;;10.60;99.90;;;;;;4973282;28;20093;-69
2021/10/28 02:19:52;;;;;;;46.83;18.67;;;10.60;99.90;;;;;;4973756;28;20023;-72
2021/10/28 02:22:17;;;;;;;41.00;19.23;;;10.50;99.90;;;;;;4971537;28;20030;-72
2021/10/28 02:24:43;;;;;;;41.28;18.80;;;10.50;99.90;;;;;;4973674;28;20106;-71
2021/10/28 02:27:08;;;;;;;37.20;18.73;;;10.50;99.90;;;;;;4973501;28;20119;-71
2021/10/28 02:29:34;;;;;;;32.97;17.00;;;10.50;99.90;;;;;;4972633;28;20572;-72
2021/10/28 02:32:00;;;;;;;41.10;19.35;;;10.50;99.90;;;;;;4973574;28;20172;-72
2021/10/28 02:34:25;;;;;;;36.35;18.65;;;10.50;99.90;;;;;;4972727;28;20534;-71
2021/10/28 02:36:51;;;;;;;36.63;18.70;;;10.40;99.90;;;;;;4972865;28;20110;-71
2021/10/28 02:39:17;;;;;;;37.20;17.63;;;10.40;99.90;;;;;;4971519;28;20027;-69
2021/10/28 02:41:42;;;;;;;40.10;18.67;;;10.40;99.90;;;;;;4972425;28;20035;-70
2021/10/28 02:44:10;;;;;;;36.00;17.30;;;10.40;99.90;;;;;;4973573;28;20027;-69
2021/10/28 02:46:36;;;;;;;35.28;17.42;;;10.40;99.90;;;;;;4974084;28;20046;-69
2021/10/28 02:49:03;;;;;;;38.78;18.08;;;10.40;99.90;;;;;;4972858;28;20065;-70
2021/10/28 02:51:28;;;;;;;37.00;18.67;;;10.40;99.90;;;;;;4973102;28;20031;-69
2021/10/28 02:53:54;;;;;;;31.98;16.75;;;10.30;99.90;;;;;;4972245;28;20431;-70
2021/10/28 02:56:19;;;;;;;40.33;19.00;;;10.40;99.90;;;;;;4972546;28;20066;-70
2021/10/28 02:58:45;;;;;;;37.15;17.95;;;10.30;99.90;;;;;;4972322;28;20089;-70
2021/10/28 03:01:10;;;;;;;34.45;17.90;;;10.30;99.90;;;;;;4973056;28;20015;-70
2021/10/28 03:03:38;;;;;;;42.08;19.77;;;10.30;99.90;;;;;;4972745;28;20027;-70
2021/10/28 03:06:04;;;;;;;37.05;19.40;;;10.30;99.90;;;;;;4972848;28;20019;-70
2021/10/28 03:08:32;;;;;;;37.03;17.98;;;10.30;99.90;;;;;;4971958;28;20480;-70
2021/10/28 03:10:57;;;;;;;37.22;18.50;;;10.30;99.90;;;;;;4972835;28;20050;-69
2021/10/28 03:13:23;;;;;;;34.30;17.80;;;10.30;99.90;;;;;;4972782;28;20069;-69
2021/10/28 03:15:50;;;;;;;39.08;19.45;;;10.30;99.90;;;;;;4970768;28;20023;-70
2021/10/28 03:26:30;;;;;;;34.65;16.73;;;10.30;99.90;;;;;;4972294;28;20499;-69
2021/10/28 03:28:55;;;;;;;39.28;17.40;;;10.30;99.90;;;;;;4970359;28;20043;-70
2021/10/28 03:31:21;;;;;;;35.55;18.10;;;10.20;99.90;;;;;;4967297;28;20030;-69
2021/10/28 03:33:48;;;;;;;34.35;16.45;;;10.20;99.90;;;;;;4970666;28;20027;-70
2021/10/28 03:36:23;;;;;;;31.95;16.60;;;10.20;99.90;;;;;;4971881;28;20026;-69
2021/10/28 03:39:14;;;;;;;31.70;16.15;;;10.20;99.90;;;;;;4971981;28;20031;-70
2021/10/28 03:42:33;;;;;;;31.45;15.57;;;10.20;99.90;;;;;;4966661;28;20023;-69
2021/10/28 03:45:10;;;;;;;31.67;16.20;;;10.20;99.90;;;;;;4966434;28;20408;-69
2021/10/28 03:47:59;;;;;;;32.03;15.23;;;10.20;99.90;;;;;;4966888;28;20114;-70
2021/10/28 04:30:37;;;;;;;31.73;15.60;;;9.90;99.90;;;;;;4971864;28;20050;-70
2021/10/28 04:33:03;;;;;;;32.95;15.38;;;9.90;99.90;;;;;;4969162;28;20391;-70
2021/10/28 04:35:28;;;;;;;37.05;16.80;;;9.90;99.90;;;;;;4971559;28;20034;-70
2021/10/28 04:37:54;;;;;;;26.92;14.20;;;9.90;99.90;;;;;;4970581;28;20034;-70
2021/10/28 04:40:19;;;;;;;30.85;15.68;;;9.90;99.90;;;;;;4970895;28;20546;-70
2021/10/28 04:42:45;;;;;;;28.15;14.30;;;9.90;99.90;;;;;;4971144;28;20027;-70
2021/10/28 04:45:11;;;;;;;34.55;16.83;;;9.90;99.90;;;;;;4970671;28;20015;-70
2021/10/28 04:47:36;;;;;;;33.30;15.00;;;9.90;99.90;;;;;;4971581;28;20030;-70
2021/10/28 04:50:03;;;;;;;26.45;14.00;;;9.90;99.90;;;;;;4970662;28;21412;-70
2021/10/28 04:52:29;;;;;;;27.45;13.50;;;9.90;99.90;;;;;;4972287;28;20497;-70
2021/10/28 04:54:55;;;;;;;26.73;12.88;;;9.90;99.90;;;;;;4963116;28;20034;-70
2021/10/28 04:57:20;;;;;;;33.97;14.32;;;9.90;99.90;;;;;;4971724;28;20039;-70
2021/10/28 04:59:46;;;;;;;27.67;14.10;;;9.90;99.90;;;;;;4957775;28;20128;-70
2021/10/28 05:02:11;;;;;;;27.45;13.27;;;9.90;99.90;;;;;;4957104;28;20015;-70
2021/10/28 05:04:37;;;;;;;32.13;14.10;;;9.90;99.90;;;;;;4956760;28;20022;-70
2021/10/28 05:07:02;;;;;;;26.30;12.48;;;9.80;99.90;;;;;;4961341;28;20039;-70
2021/10/28 05:09:32;;;;;;;30.13;13.82;;;9.80;99.90;;;;;;4955507;28;20035;-70
2021/10/28 05:11:59;;;;;;;27.80;13.15;;;9.80;99.90;;;;;;4956489;28;20023;-70
2021/10/28 05:14:24;;;;;;;25.80;12.52;;;9.80;99.90;;;;;;4962852;28;20018;-70
2021/10/28 05:16:56;;;;;;;29.17;13.18;;;9.80;99.90;;;;;;4958270;28;20203;-70
2021/10/28 05:19:22;;;;;;;26.48;13.60;;;9.80;99.90;;;;;;4960811;28;20094;-72
2021/10/28 05:21:48;;;;;;;21.58;12.18;;;9.70;99.90;;;;;;4961266;28;20024;-70
2021/10/28 05:24:13;;;;;;;25.23;13.80;;;9.70;99.90;;;;;;4959044;28;20046;-71
2021/10/28 05:26:39;;;;;;;26.67;13.70;;;9.70;99.90;;;;;;4958027;28;20663;-70
2021/10/28 05:29:04;;;;;;;25.23;12.60;;;9.70;99.90;;;;;;4973325;28;20030;-70
2021/10/28 05:31:30;;;;;;;29.95;12.98;;;9.70;99.90;;;;;;4974135;28;20031;-71
2021/10/28 05:33:55;;;;;;;23.67;12.07;;;9.70;99.90;;;;;;4974150;28;20098;-71
2021/10/28 05:36:21;;;;;;;29.25;12.63;;;9.70;99.90;;;;;;4974097;28;20097;-70
2021/10/28 05:38:47;;;;;;;23.73;12.52;;;9.60;99.90;;;;;;4973908;28;20543;-70
2021/10/28 05:41:13;;;;;;;23.00;11.95;;;9.60;99.90;;;;;;4964592;28;20023;-69
2021/10/28 05:43:38;;;;;;;24.58;13.55;;;9.60;99.90;;;;;;4959933;28;20027;-70
2021/10/28 05:46:04;;;;;;;30.60;13.10;;;9.60;99.90;;;;;;4973379;28;20078;-71
2021/10/28 05:48:30;;;;;;;26.98;13.05;;;9.60;99.90;;;;;;4973479;28;20396;-71
2021/10/28 05:50:55;;;;;;;27.48;12.82;;;9.60;99.90;;;;;;4973851;28;20472;-71
2021/10/28 05:53:21;;;;;;;32.20;13.45;;;9.60;99.90;;;;;;4973538;28;20035;-70
2021/10/28 05:55:48;;;;;;;26.85;13.02;;;9.50;99.90;;;;;;4962097;28;20194;-70
2021/10/28 05:58:14;;;;;;;27.98;12.80;;;9.60;99.90;;;;;;4957163;28;20081;-70
2021/10/28 06:00:39;;;;;;;24.42;12.65;;;9.60;99.90;;;;;;4958556;28;20011;-70
2021/10/28 06:03:05;;;;;;;23.88;12.48;;;9.60;99.90;;;;;;4955867;28;20476;-70
2021/10/28 06:05:31;;;;;;;27.42;12.93;;;9.60;99.90;;;;;;4957705;28;20477;-71
2021/10/28 06:07:56;;;;;;;23.27;12.77;;;9.60;99.90;;;;;;4955593;28;20019;-70
2021/10/28 06:10:22;;;;;;;25.38;11.90;;;9.60;99.90;;;;;;4957401;28;20043;-71
2021/10/28 06:12:51;;;;;;;23.85;11.65;;;9.60;99.90;;;;;;4955255;28;20027;-73
2021/10/28 06:15:19;;;;;;;20.85;11.05;;;9.60;99.90;;;;;;4979754;28;20027;-70
2021/10/28 06:20:18;;;;;;;26.25;11.93;;;9.50;99.90;;;;;;4968667;28;20042;-70
2021/10/28 06:22:43;;;;;;;28.23;12.18;;;9.50;99.90;;;;;;4973046;28;20488;-70
2021/10/28 06:25:09;;;;;;;22.40;12.05;;;9.50;99.90;;;;;;4969893;28;20025;-70
2021/10/28 06:27:35;;;;;;;25.80;11.68;;;9.50;99.90;;;;;;4972734;28;20019;-70
2021/10/28 06:30:01;;;;;;;22.33;12.30;;;9.50;99.90;;;;;;4988162;28;20089;-70
2021/10/28 06:32:27;;;;;;;22.25;11.32;;;9.60;99.90;;;;;;4967543;28;20086;-71
2021/10/28 06:34:52;;;;;;;21.00;10.70;;;9.50;99.90;;;;;;4962301;28;20023;-71
2021/10/28 06:37:18;;;;;;;24.63;12.13;;;9.50;99.90;;;;;;4965454;28;20061;-71
2021/10/28 06:39:44;;;;;;;22.23;12.35;;;9.50;99.90;;;;;;4956359;28;20026;-71
2021/10/28 06:42:12;;;;;;;24.00;12.05;;;9.50;99.90;;;;;;4961539;28;20042;-71
2021/10/28 06:44:38;;;;;;;24.55;11.20;;;9.50;99.90;;;;;;4959560;28;20016;-70
2021/10/28 06:47:05;;;;;;;24.95;11.05;;;9.50;99.90;;;;;;4963478;28;20026;-71
2021/10/28 06:49:33;;;;;;;24.58;12.13;;;9.50;99.90;;;;;;4958668;28;20029;-71
2021/10/28 06:51:58;;;;;;;20.05;10.25;;;9.60;99.90;;;;;;4962293;28;20916;-71
2021/10/28 06:54:36;;;;;;;25.55;12.85;;;9.50;99.90;;;;;;4963920;28;20088;-71
2021/10/28 07:04:59;;;;;;;25.98;11.73;;;9.60;99.90;;;;;;4961884;28;20031;-70
2021/10/28 07:07:26;;;;;;;20.35;11.27;;;9.60;99.90;;;;;;4961127;28;20025;-71
2021/10/28 07:10:08;;;;;;;23.65;10.63;;;9.60;99.90;;;;;;4963831;28;20484;-70
2021/10/28 07:13:27;;;;;;;20.52;11.10;;;9.70;99.90;;;;;;4961302;28;20019;-71
2021/10/28 07:15:39;;;;;;;21.33;10.32;;;9.70;99.90;;;;;;4960080;28;20043;-71
2021/10/28 07:25:33;;;;;;;25.48;11.10;;;9.80;99.90;;;;;;4955635;28;20027;-71
2021/10/28 07:28:17;;;;;;;21.48;11.80;;;9.80;99.90;;;;;;4968561;28;20107;-71
2021/10/28 08:19:41;;;;;;;8.27;4.72;;;16.00;99.90;;;;;;4952727;28;20035;-71
2021/10/28 08:22:16;;;;;;;7.53;4.45;;;16.40;99.90;;;;;;4953369;28;20038;-70
2021/10/28 08:29:55;;;;;;;6.60;4.40;;;17.20;99.90;;;;;;4970791;28;20407;-71
2021/10/28 08:32:20;;;;;;;7.80;4.45;;;17.40;99.40;;;;;;4965470;28;20429;-71
2021/10/28 08:34:49;;;;;;;8.77;5.20;;;17.80;99.00;;;;;;4970755;28;20069;-71
2021/10/28 08:37:16;;;;;;;7.45;4.53;;;17.90;98.20;;;;;;4969181;28;20235;-71
2021/10/28 08:39:51;;;;;;;8.50;4.55;;;18.20;98.10;;;;;;4968479;28;20053;-71
2021/10/28 08:42:20;;;;;;;7.32;3.83;;;18.40;96.70;;;;;;4965995;28;20109;-71
2021/10/28 08:44:49;;;;;;;12.95;4.65;;;18.60;96.60;;;;;;4969858;28;20023;-71
2021/10/28 08:47:16;;;;;;;10.87;4.97;;;18.70;96.30;;;;;;4963344;28;20650;-71
2021/10/28 08:49:47;;;;;;;8.40;4.70;;;18.60;95.80;;;;;;4970921;28;20031;-71
2021/10/28 08:52:48;;;;;;;10.50;5.18;;;18.80;95.20;;;;;;4969664;28;20021;-70
2021/10/28 08:55:29;;;;;;;9.75;6.07;;;18.80;95.20;;;;;;4969801;28;20031;-70
2021/10/28 08:58:31;;;;;;;9.48;5.03;;;18.80;95.00;;;;;;4970537;28;20027;-71
2021/10/28 09:26:39;;;;;;;8.95;5.35;;;19.90;92.30;;;;;;4970757;28;20093;-70
2021/10/28 09:32:08;;;;;;;10.45;5.47;;;20.20;91.60;;;;;;4970502;28;20046;-68
2021/10/28 09:35:01;;;;;;;8.50;5.88;;;20.40;91.80;;;;;;4963257;28;20019;-68
2021/10/28 09:51:51;;;;;;;10.25;5.65;;;20.20;91.60;;;;;;4958605;28;20039;-68
2021/10/28 10:00:12;;;;;;;8.60;5.38;;;20.50;90.70;;;;;;4959793;28;20100;-67
2021/10/28 10:02:44;;;;;;;10.23;5.65;;;20.60;90.80;;;;;;4972186;28;20488;-68
2021/10/28 10:05:22;;;;;;;9.82;5.85;;;20.70;90.60;;;;;;4962222;28;20029;-67
2021/10/28 10:07:49;;;;;;;9.95;6.10;;;20.90;90.50;;;;;;4958351;28;20031;-67
2021/10/28 10:10:28;;;;;;;9.40;5.30;;;21.10;90.20;;;;;;4962859;28;20019;-68
2021/10/28 10:12:56;;;;;;;7.93;4.75;;;21.50;90.30;;;;;;4971153;28;20086;-68
2021/10/28 10:15:21;;;;;;;10.05;5.97;;;21.60;89.20;;;;;;4972836;28;20027;-68
2021/10/28 10:17:55;;;;;;;6.68;5.13;;;21.60;88.30;;;;;;4972750;28;20023;-68
2021/10/28 10:20:30;;;;;;;10.20;5.88;;;21.90;87.90;;;;;;4971911;28;20566;-67
2021/10/28 10:23:21;;;;;;;11.13;6.30;;;21.80;86.80;;;;;;4972924;28;20019;-68
2021/10/28 11:21:26;;;;;;;8.73;4.88;;;22.00;83.90;;;;;;4958667;28;19990;-67
2021/10/28 11:24:13;;;;;;;10.23;5.47;;;22.40;84.20;;;;;;4960467;28;20037;-67
2021/10/28 12:54:02;;;;;;;11.88;6.00;;;20.10;87.00;;;;;;4959885;28;20043;-70
2021/10/28 13:02:15;;;;;;;7.68;4.85;;;20.20;87.90;;;;;;4955064;28;20023;-70
2021/10/28 13:02:19;;;;;;;9.43;5.22;;;20.20;87.70;;;;;;4955736;28;20050;-70
2021/10/28 13:35:10;;;;;;;12.02;4.57;;;19.20;90.00;;;;;;4968074;28;20078;-72
2021/10/28 13:52:20;;;;;;;7.75;4.90;;;19.20;90.20;;;;;;4976979;28;20408;-69
2021/10/28 14:27:22;;;;;;;6.20;3.38;;;18.30;91.60;;;;;;4963764;28;20034;-70
2021/10/28 14:32:57;;;;;;;5.00;3.10;;;18.30;91.60;;;;;;4962451;28;20069;-70
2021/10/28 15:02:52;;;;;;;8.55;3.80;;;17.90;92.30;;;;;;4964447;28;20542;-69
2021/10/28 15:30:10;;;;;;;5.82;2.90;;;17.40;93.50;;;;;;4956222;28;20082;-69
2021/10/28 15:35:33;;;;;;;7.47;3.95;;;17.30;93.60;;;;;;4954969;28;20049;-69
2021/10/28 15:38:05;;;;;;;7.25;3.17;;;17.30;93.70;;;;;;4956502;28;20560;-69
2021/10/28 15:40:44;;;;;;;7.13;2.75;;;17.30;93.80;;;;;;4954331;28;20106;-68
2021/10/28 15:43:47;;;;;;;9.37;3.30;;;17.20;93.90;;;;;;4954585;28;20055;-69
2021/10/28 15:49:51;;;;;;;8.23;3.60;;;17.20;94.10;;;;;;4961573;28;20034;-68
2021/10/28 16:24:00;;;;;;;6.55;3.15;;;16.60;95.30;;;;;;4957066;28;20128;-69
2021/10/28 16:26:31;;;;;;;9.15;3.35;;;16.50;95.30;;;;;;4953817;28;20048;-68
2021/10/28 16:28:57;;;;;;;5.45;2.88;;;16.50;95.40;;;;;;4953288;28;20026;-68
2021/10/28 16:31:22;;;;;;;6.70;3.70;;;16.40;95.50;;;;;;4953532;28;20031;-69
2021/10/28 16:33:49;;;;;;;6.82;3.00;;;16.40;95.60;;;;;;4952552;28;20050;-69
2021/10/28 16:36:15;;;;;;;8.85;3.78;;;16.30;95.70;;;;;;4957003;28;20533;-69
2021/10/28 16:38:42;;;;;;;8.65;3.17;;;16.30;95.80;;;;;;4970936;28;20037;-69
2021/10/28 16:41:08;;;;;;;7.18;3.30;;;16.30;95.90;;;;;;4970199;28;20026;-69
2021/10/28 16:43:34;;;;;;;7.85;3.85;;;16.20;95.90;;;;;;4960038;28;20020;-69
2021/10/28 16:46:00;;;;;;;5.95;3.20;;;16.20;96.00;;;;;;4966862;28;20024;-68
2021/10/28 16:48:25;;;;;;;4.55;3.00;;;16.10;96.10;;;;;;4961998;28;20046;-69
2021/10/28 16:50:51;;;;;;;5.95;3.35;;;16.10;96.20;;;;;;4960667;28;20469;-69
2021/10/28 16:53:17;;;;;;;11.90;4.43;;;16.00;96.40;;;;;;4955142;28;20118;-69
2021/10/28 16:55:43;;;;;;;4.35;2.70;;;15.90;96.60;;;;;;4953477;28;20110;-68
2021/10/28 16:58:10;;;;;;;5.93;3.55;;;15.80;96.70;;;;;;4951227;28;20031;-69
2021/10/28 17:00:36;;;;;;;8.07;4.00;;;15.80;96.80;;;;;;4951581;28;20492;-69
2021/10/28 17:03:02;;;;;;;7.43;4.13;;;15.70;97.00;;;;;;4951975;28;20055;-69
2021/10/28 17:05:28;;;;;;;7.35;3.97;;;15.60;97.10;;;;;;4953895;28;20074;-69
2021/10/28 17:07:54;;;;;;;5.60;3.72;;;15.50;97.30;;;;;;4955557;28;20023;-69
2021/10/28 17:10:19;;;;;;;7.97;4.13;;;15.50;97.50;;;;;;4958941;28;20085;-69
2021/10/28 17:12:45;;;;;;;7.35;4.15;;;15.40;97.70;;;;;;4954183;28;20035;-68
2021/10/28 17:15:10;;;;;;;7.88;4.03;;;15.40;97.80;;;;;;4963981;28;20069;-69
2021/10/28 17:17:36;;;;;;;6.55;4.07;;;15.40;98.00;;;;;;4955296;28;20067;-69
2021/10/28 17:20:07;;;;;;;7.30;4.20;;;15.30;98.00;;;;;;4958598;28;20027;-69
2021/10/28 17:22:36;;;;;;;8.43;3.95;;;15.30;98.20;;;;;;4958089;28;20027;-70
2021/10/28 17:25:04;;;;;;;6.10;4.03;;;15.20;98.30;;;;;;4958532;28;20074;-69
2021/10/28 17:27:30;;;;;;;7.50;3.40;;;15.20;98.30;;;;;;4959489;28;20027;-70
2021/10/28 17:29:57;;;;;;;5.53;3.50;;;15.20;98.40;;;;;;4961498;28;20484;-69
2021/10/28 17:32:22;;;;;;;7.68;3.72;;;15.10;98.60;;;;;;4959634;28;20023;-70
2021/10/28 17:34:48;;;;;;;6.60;3.97;;;15.10;98.50;;;;;;4954809;28;20050;-70
2021/10/28 17:37:14;;;;;;;7.43;3.95;;;15.00;98.80;;;;;;4958130;28;20027;-69
2021/10/28 17:39:39;;;;;;;6.15;3.78;;;15.00;98.90;;;;;;4954118;28;20027;-70
2021/10/28 17:42:05;;;;;;;7.93;4.28;;;14.90;98.90;;;;;;4957739;28;20615;-70
2021/10/28 17:45:14;;;;;;;6.78;3.58;;;14.90;98.90;;;;;;4958811;28;20027;-70
2021/10/28 17:47:20;;;;;;;6.70;3.75;;;14.90;98.90;;;;;;4962893;28;20078;-70
2021/10/28 17:49:46;;;;;;;6.88;3.80;;;14.90;98.90;;;;;;4954905;28;20028;-70
2021/10/28 17:52:12;;;;;;;6.90;4.25;;;14.90;99.00;;;;;;4965524;28;20052;-70
2021/10/28 17:54:38;;;;;;;7.95;4.00;;;14.90;99.00;;;;;;4958478;28;20032;-70
2021/10/28 17:57:06;;;;;;;7.30;4.22;;;14.80;99.10;;;;;;4976601;28;20023;-70
2021/10/28 17:59:32;;;;;;;7.18;4.25;;;14.80;99.20;;;;;;4959786;28;20046;-69
2021/10/28 18:01:58;;;;;;;6.70;4.10;;;14.80;99.30;;;;;;4972460;28;20051;-70
2021/10/28 18:04:23;;;;;;;8.80;4.55;;;14.70;99.40;;;;;;4972781;28;20538;-70
2021/10/28 18:06:50;;;;;;;10.65;4.10;;;14.70;99.50;;;;;;4973023;28;20035;-69
2021/10/28 18:09:17;;;;;;;7.40;3.88;;;14.60;99.70;;;;;;4973001;28;20027;-69
2021/10/28 18:11:42;;;;;;;7.93;4.22;;;14.60;99.80;;;;;;4973412;28;20051;-70
2021/10/28 18:14:12;;;;;;;8.30;4.15;;;14.50;99.90;;;;;;4972184;28;20062;-70
2021/10/28 18:16:40;;;;;;;9.13;4.30;;;14.50;99.90;;;;;;4972426;28;20102;-70
2021/10/28 18:19:08;;;;;;;11.63;4.75;;;14.40;99.90;;;;;;4970753;28;20025;-70
2021/10/28 18:21:34;;;;;;;8.98;4.88;;;14.40;99.90;;;;;;4958594;28;20046;-69
2021/10/28 18:24:00;;;;;;;6.82;4.85;;;14.30;99.90;;;;;;4962863;28;20022;-70
2021/10/28 18:26:25;;;;;;;10.38;4.18;;;14.30;99.90;;;;;;4957187;28;20027;-70
2021/10/28 18:28:53;;;;;;;9.15;4.82;;;14.20;99.90;;;;;;4960936;28;20114;-69
2021/10/28 18:31:19;;;;;;;11.43;5.28;;;14.20;99.90;;;;;;4960896;28;20031;-70
2021/10/28 18:33:45;;;;;;;8.70;4.43;;;14.20;99.90;;;;;;4963735;28;20031;-70
2021/10/28 18:36:11;;;;;;;10.45;4.70;;;14.10;99.90;;;;;;4973288;28;20032;-69
2021/10/28 18:38:38;;;;;;;6.65;4.50;;;14.20;99.90;;;;;;4972248;28;20034;-70
2021/10/28 18:41:04;;;;;;;9.30;4.35;;;14.10;99.90;;;;;;4973209;28;20019;-70
2021/10/28 18:43:31;;;;;;;8.60;4.53;;;14.10;99.90;;;;;;4973105;28;20026;-70
2021/10/28 18:45:57;;;;;;;8.73;5.22;;;14.10;99.90;;;;;;4973246;28;20031;-70
2021/10/28 18:48:24;;;;;;;7.00;3.70;;;14.10;99.90;;;;;;4972701;28;20026;-70
2021/10/28 18:50:50;;;;;;;8.88;5.18;;;14.10;99.90;;;;;;4958716;28;20038;-70
2021/10/28 18:53:15;;;;;;;11.73;4.68;;;14.00;99.90;;;;;;4955476;28;20023;-70
2021/10/28 18:55:41;;;;;;;10.30;4.20;;;14.00;99.90;;;;;;4959067;28;20027;-70
2021/10/28 18:58:07;;;;;;;8.02;4.97;;;14.00;99.90;;;;;;4960052;28;20018;-70
2021/10/28 19:00:33;;;;;;;7.85;4.38;;;13.90;99.90;;;;;;4957500;28;20015;-69
2021/10/28 19:02:59;;;;;;;7.72;4.38;;;13.90;99.90;;;;;;4953848;28;20019;-70
2021/10/28 19:05:26;;;;;;;9.35;4.60;;;13.90;99.90;;;;;;4957049;28;20011;-69
2021/10/28 19:07:51;;;;;;;11.43;5.20;;;13.80;99.90;;;;;;4954683;28;20381;-70
2021/10/28 19:10:17;;;;;;;7.93;4.40;;;13.80;99.90;;;;;;4958929;28;20038;-69
2021/10/28 19:12:43;;;;;;;8.48;4.97;;;13.80;99.90;;;;;;4960623;28;20026;-70
2021/10/28 19:15:09;;;;;;;7.97;4.70;;;13.80;99.90;;;;;;4955555;28;20719;-70
2021/10/28 19:17:35;;;;;;;7.70;4.88;;;13.70;99.90;;;;;;4959753;28;20029;-70
2021/10/28 19:20:02;;;;;;;9.43;4.90;;;13.70;99.90;;;;;;4956350;28;20417;-69
2021/10/28 19:22:32;;;;;;;10.48;4.20;;;13.70;99.90;;;;;;4955047;28;20026;-70
2021/10/28 19:24:58;;;;;;;9.70;5.00;;;13.60;99.90;;;;;;4955134;28;20015;-70
2021/10/28 19:27:24;;;;;;;11.90;5.15;;;13.60;99.90;;;;;;4951680;28;20042;-70
2021/10/28 19:29:56;;;;;;;9.38;5.18;;;13.60;99.90;;;;;;4959499;28;20388;-70
2021/10/28 19:32:24;;;;;;;7.13;4.82;;;13.60;99.90;;;;;;4956406;28;20039;-70
2021/10/28 19:34:49;;;;;;;7.78;4.97;;;13.60;99.90;;;;;;4969677;28;20484;-70
2021/10/28 19:40:15;;;;;;;10.75;4.82;;;13.50;99.90;;;;;;4958969;28;20053;-70
2021/10/28 19:47:56;;;;;;;7.63;4.70;;;13.40;99.90;;;;;;4964929;28;20416;-70
2021/10/28 19:50:22;;;;;;;7.07;4.30;;;13.40;99.90;;;;;;4967030;28;20089;-69
2021/10/28 19:52:48;;;;;;;14.05;6.72;;;13.40;99.90;;;;;;4965744;28;20023;-70
2021/10/28 19:55:14;;;;;;;8.38;4.88;;;13.40;99.90;;;;;;4962027;28;20070;-70
2021/10/28 19:57:47;;;;;;;7.22;4.20;;;13.40;99.90;;;;;;4964379;28;20639;-70
2021/10/28 20:00:23;;;;;;;6.65;4.53;;;13.40;99.90;;;;;;4965685;28;20102;-70
2021/10/28 20:21:07;;;;;;;14.57;6.90;;;13.20;99.90;;;;;;4963872;28;20120;-69
2021/10/28 20:23:32;;;;;;;9.05;4.65;;;13.20;99.90;;;;;;4964178;28;20387;-69
2021/10/28 20:25:58;;;;;;;12.32;5.07;;;13.20;99.90;;;;;;4964552;28;20015;-69
2021/10/28 20:28:24;;;;;;;14.10;5.97;;;13.20;99.90;;;;;;4965250;28;20023;-70
2021/10/28 20:30:58;;;;;;;9.10;5.35;;;13.20;99.90;;;;;;4969898;28;20507;-70
2021/10/28 20:33:25;;;;;;;10.35;6.00;;;13.10;99.90;;;;;;4971236;28;20050;-70
2021/10/28 20:38:17;;;;;;;7.85;5.03;;;13.00;99.90;;;;;;4965691;28;20045;-69
2021/10/28 20:40:42;;;;;;;9.88;5.95;;;13.00;99.90;;;;;;4966680;28;20102;-70
2021/10/28 20:43:08;;;;;;;8.07;5.15;;;13.00;99.90;;;;;;4963999;28;20109;-70
2021/10/28 20:45:34;;;;;;;8.32;5.15;;;13.00;99.90;;;;;;4966486;28;20405;-70
2021/10/28 20:47:59;;;;;;;9.68;4.72;;;13.00;99.90;;;;;;4967421;28;20049;-70
2021/10/28 20:50:27;;;;;;;12.00;6.38;;;13.00;99.90;;;;;;4966339;28;20018;-70
2021/10/28 20:52:55;;;;;;;9.68;6.15;;;13.00;99.90;;;;;;4965914;28;20031;-70
2021/10/28 20:55:21;;;;;;;8.40;5.40;;;13.00;99.90;;;;;;4968050;28;20050;-70
2021/10/28 20:57:48;;;;;;;9.60;5.57;;;12.90;99.90;;;;;;4967469;28;20428;-70
2021/10/28 21:00:17;;;;;;;9.07;5.32;;;13.00;99.90;;;;;;4962230;28;20019;-70
2021/10/28 21:02:45;;;;;;;11.43;5.93;;;12.90;99.90;;;;;;4962919;28;20448;-70
2021/10/28 21:05:13;;;;;;;10.18;5.72;;;12.90;99.90;;;;;;4967135;28;20027;-70
2021/10/28 21:07:43;;;;;;;10.18;5.80;;;12.90;99.90;;;;;;4961460;28;20440;-70
2021/10/28 21:10:11;;;;;;;9.07;5.75;;;12.80;99.90;;;;;;4964837;28;20035;-70
2021/10/28 21:12:38;;;;;;;11.02;5.25;;;12.80;99.90;;;;;;4963340;28;20085;-70
2021/10/28 21:15:05;;;;;;;11.10;5.70;;;12.70;99.90;;;;;;4967724;28;20019;-70
2021/10/28 21:17:31;;;;;;;11.23;5.90;;;12.70;99.90;;;;;;4957612;28;20467;-70
2021/10/28 21:19:57;;;;;;;8.52;5.43;;;12.70;99.90;;;;;;4967184;28;20043;-70
2021/10/28 21:22:23;;;;;;;9.63;4.95;;;12.60;99.90;;;;;;4960023;28;20110;-70
2021/10/28 21:24:50;;;;;;;9.00;5.03;;;12.60;99.90;;;;;;4967267;28;20093;-70
2021/10/28 21:27:17;;;;;;;14.90;5.50;;;12.60;99.90;;;;;;4966387;28;20033;-70
2021/10/28 21:29:43;;;;;;;9.98;5.45;;;12.60;99.90;;;;;;4966944;28;20049;-70
2021/10/28 21:32:09;;;;;;;7.95;5.05;;;12.50;99.90;;;;;;4966902;28;20111;-70